Time;durP1;ratioP1;P1;durP2;ratioP2;P2;SDS_P1;SDS_P2;PMS_P1;PMS_P2;Temp;Humidity;BMP_temperature;BMP_pressure;BME280_temperature;BME280_humidity;BME280_pressure;Samples;Min_cycle;Max_cycle;Signal;HPM_P1;HPM_P2
2023/10/23 00:11:24;;;;;;;13.70;5.63;;;18.00;82.30;;;;;;6150249;22;1554939;-82
2023/10/23 00:13:50;;;;;;;15.38;5.55;;;18.00;82.30;;;;;;6188529;23;20253;-82
2023/10/23 00:16:16;;;;;;;11.57;5.50;;;17.90;82.10;;;;;;6185879;23;20004;-82
2023/10/23 00:18:41;;;;;;;12.40;5.30;;;17.90;82.00;;;;;;6160971;23;20012;-82
2023/10/23 00:21:08;;;;;;;11.20;4.68;;;17.90;82.00;;;;;;6189239;23;20176;-81
2023/10/23 00:23:34;;;;;;;13.43;4.25;;;17.80;82.00;;;;;;6186121;23;20048;-83
2023/10/23 00:26:00;;;;;;;14.20;4.30;;;17.70;82.10;;;;;;6186639;23;20009;-82
2023/10/23 00:28:25;;;;;;;8.43;3.45;;;17.70;82.10;;;;;;6186129;23;20013;-82
2023/10/23 00:30:51;;;;;;;7.75;3.00;;;17.70;82.10;;;;;;6186253;23;20446;-82
2023/10/23 00:33:17;;;;;;;9.15;3.28;;;17.70;82.10;;;;;;6186852;23;20077;-82
2023/10/23 00:35:42;;;;;;;9.55;3.25;;;17.60;82.10;;;;;;6186738;23;20097;-82
2023/10/23 00:38:08;;;;;;;10.10;2.97;;;17.60;82.40;;;;;;6186555;23;20080;-82
2023/10/23 00:40:34;;;;;;;10.20;3.30;;;17.70;82.50;;;;;;6185606;23;20020;-82
2023/10/23 00:43:20;;;;;;;11.70;2.88;;;17.70;82.30;;;;;;6186385;23;20100;-82
2023/10/23 00:45:57;;;;;;;10.27;2.80;;;17.70;82.40;;;;;;6186865;23;20001;-81
2023/10/23 00:48:25;;;;;;;8.48;3.03;;;17.60;82.60;;;;;;6185854;23;20001;-82
2023/10/23 00:50:56;;;;;;;13.02;2.78;;;17.70;82.60;;;;;;6185887;23;20023;-83
2023/10/23 00:53:25;;;;;;;13.32;3.00;;;17.70;82.60;;;;;;6186395;23;20020;-82
2023/10/23 00:55:53;;;;;;;5.40;2.65;;;17.70;82.60;;;;;;6186274;23;20008;-82
2023/10/23 00:58:20;;;;;;;7.05;2.85;;;17.70;82.60;;;;;;6185660;23;20419;-82
2023/10/23 01:00:48;;;;;;;10.45;3.35;;;17.80;82.60;;;;;;6184974;23;20096;-82
2023/10/23 01:03:13;;;;;;;8.18;3.47;;;17.80;82.40;;;;;;6185374;23;20051;-81
2023/10/23 01:05:39;;;;;;;7.47;2.80;;;17.80;82.50;;;;;;6185552;23;20013;-82
2023/10/23 01:08:06;;;;;;;9.77;2.92;;;17.70;82.70;;;;;;6185391;23;20073;-83
2023/10/23 01:10:32;;;;;;;9.45;3.20;;;17.70;82.70;;;;;;6184787;23;20021;-82
2023/10/23 01:12:58;;;;;;;8.85;3.03;;;17.70;82.70;;;;;;6185317;23;19997;-82
2023/10/23 01:15:24;;;;;;;11.93;4.05;;;17.70;82.70;;;;;;6185158;23;20012;-82
2023/10/23 01:17:50;;;;;;;10.43;4.40;;;17.70;82.70;;;;;;6185018;23;20001;-82
2023/10/23 01:20:18;;;;;;;12.48;4.07;;;17.70;82.70;;;;;;6184838;23;20013;-82
2023/10/23 01:22:44;;;;;;;11.55;3.92;;;17.70;82.80;;;;;;6184876;23;20001;-83
2023/10/23 01:25:14;;;;;;;11.15;3.70;;;17.60;83.00;;;;;;6184742;23;20005;-82
2023/10/23 01:27:40;;;;;;;13.05;3.53;;;17.60;83.20;;;;;;6185183;23;20011;-82
2023/10/23 01:30:08;;;;;;;11.48;3.60;;;17.60;83.10;;;;;;6185173;23;20005;-82
2023/10/23 01:32:34;;;;;;;8.68;3.50;;;17.60;83.30;;;;;;6185105;23;20098;-81
2023/10/23 01:35:00;;;;;;;10.40;3.20;;;17.60;83.10;;;;;;6184978;23;20012;-82
2023/10/23 01:37:25;;;;;;;10.13;3.10;;;17.70;83.20;;;;;;6185198;23;20005;-82
2023/10/23 01:39:51;;;;;;;10.32;2.83;;;17.60;83.40;;;;;;6184972;23;20020;-81
2023/10/23 01:42:17;;;;;;;8.98;2.90;;;17.60;83.30;;;;;;6184869;23;20395;-82
2023/10/23 01:44:42;;;;;;;12.88;3.10;;;17.60;83.40;;;;;;6184869;23;20031;-82
2023/10/23 01:47:08;;;;;;;8.57;2.70;;;17.50;83.50;;;;;;6184536;23;20001;-82
2023/10/23 01:49:34;;;;;;;9.27;2.70;;;17.40;83.50;;;;;;6184550;23;19997;-82
2023/10/23 01:52:00;;;;;;;7.82;2.17;;;17.50;83.70;;;;;;6184809;23;20064;-81
2023/10/23 01:54:25;;;;;;;6.88;2.45;;;17.40;83.60;;;;;;6184693;23;19998;-81
2023/10/23 01:56:51;;;;;;;7.95;2.65;;;17.40;83.60;;;;;;6184711;23;20021;-81
2023/10/23 01:59:17;;;;;;;8.45;2.50;;;17.40;83.70;;;;;;6184417;23;20012;-80
2023/10/23 02:01:43;;;;;;;7.88;2.28;;;17.40;83.70;;;;;;6184508;23;20036;-81
2023/10/23 02:04:09;;;;;;;8.60;2.78;;;17.40;83.80;;;;;;6184866;23;20001;-81
2023/10/23 02:06:34;;;;;;;8.50;2.47;;;17.40;83.70;;;;;;6184127;23;20005;-80
2023/10/23 02:09:01;;;;;;;6.63;2.40;;;17.50;83.60;;;;;;6185550;23;20075;-79
2023/10/23 02:11:26;;;;;;;7.43;2.20;;;17.40;83.60;;;;;;6184618;23;20017;-80
2023/10/23 02:13:52;;;;;;;7.40;2.50;;;17.40;83.50;;;;;;6185170;23;20058;-80
2023/10/23 02:16:18;;;;;;;10.50;2.60;;;17.40;83.60;;;;;;6184972;23;20075;-79
2023/10/23 02:18:44;;;;;;;9.43;2.65;;;17.40;83.50;;;;;;6184336;23;20005;-79
2023/10/23 02:21:10;;;;;;;12.98;2.40;;;17.40;83.50;;;;;;6184293;23;20312;-79
2023/10/23 02:23:35;;;;;;;9.40;2.80;;;17.40;83.50;;;;;;6184360;23;20024;-80
2023/10/23 02:26:02;;;;;;;6.95;2.10;;;17.40;83.60;;;;;;6184357;23;20005;-80
2023/10/23 02:28:28;;;;;;;11.18;2.60;;;17.40;83.50;;;;;;6184654;23;20320;-80
2023/10/23 02:30:54;;;;;;;5.15;2.28;;;17.30;83.50;;;;;;6184309;23;20127;-80
2023/10/23 02:33:20;;;;;;;7.75;2.10;;;17.30;83.60;;;;;;6184543;23;20431;-79
2023/10/23 02:35:46;;;;;;;8.20;2.67;;;17.30;83.70;;;;;;6184125;23;20000;-80
2023/10/23 02:38:12;;;;;;;8.70;2.22;;;17.30;83.70;;;;;;6184256;23;20143;-79
2023/10/23 02:40:37;;;;;;;6.25;2.63;;;17.30;83.70;;;;;;6183979;23;20009;-80
2023/10/23 02:43:03;;;;;;;11.27;2.50;;;17.20;83.70;;;;;;6184179;23;19997;-78
2023/10/23 02:45:29;;;;;;;8.50;2.10;;;17.20;83.70;;;;;;6184121;23;20009;-79
2023/10/23 02:47:55;;;;;;;7.13;2.30;;;17.20;83.70;;;;;;6184297;23;20072;-79
2023/10/23 02:50:22;;;;;;;9.85;2.97;;;17.20;83.60;;;;;;6183908;23;20001;-80
2023/10/23 02:52:47;;;;;;;10.05;2.50;;;17.20;83.80;;;;;;6184092;23;20064;-79
2023/10/23 02:55:13;;;;;;;8.45;2.10;;;17.20;83.70;;;;;;6184192;23;20076;-80
2023/10/23 02:57:39;;;;;;;7.45;2.15;;;17.20;83.70;;;;;;6184086;23;20001;-80
2023/10/23 03:00:05;;;;;;;6.85;1.88;;;17.20;83.70;;;;;;6183996;23;20339;-79
2023/10/23 03:02:33;;;;;;;7.63;2.15;;;17.20;83.70;;;;;;6184087;23;20004;-80
2023/10/23 03:04:58;;;;;;;5.65;1.98;;;17.10;83.50;;;;;;6183812;23;20367;-79
2023/10/23 03:07:24;;;;;;;9.73;1.85;;;17.10;83.60;;;;;;6184138;23;19997;-79
2023/10/23 03:09:50;;;;;;;10.68;2.00;;;17.10;83.60;;;;;;6184155;23;20032;-79
2023/10/23 03:12:16;;;;;;;13.55;2.13;;;17.20;83.50;;;;;;6184169;23;20055;-80
2023/10/23 03:14:42;;;;;;;10.55;2.30;;;17.10;83.40;;;;;;6184248;23;20035;-79
2023/10/23 03:17:07;;;;;;;6.80;2.05;;;17.10;83.60;;;;;;6184425;23;20024;-81
2023/10/23 03:19:33;;;;;;;9.55;2.03;;;17.00;83.70;;;;;;6183841;23;20020;-80
2023/10/23 03:21:59;;;;;;;6.05;1.80;;;17.00;84.00;;;;;;6184159;23;20375;-80
2023/10/23 03:24:24;;;;;;;6.32;1.92;;;17.00;83.80;;;;;;6157597;23;20005;-80
2023/10/23 03:26:50;;;;;;;7.28;2.00;;;17.00;83.80;;;;;;6184052;23;20029;-81
2023/10/23 03:29:17;;;;;;;7.28;2.13;;;17.00;83.70;;;;;;6183632;23;20385;-79
2023/10/23 03:31:43;;;;;;;9.02;2.03;;;17.00;83.80;;;;;;6158700;23;20063;-80
2023/10/23 03:34:08;;;;;;;6.78;2.08;;;17.10;83.80;;;;;;6186326;23;20419;-80
2023/10/23 03:36:34;;;;;;;12.45;2.45;;;17.00;84.00;;;;;;6186337;23;20067;-79
2023/10/23 03:39:00;;;;;;;7.30;2.00;;;17.00;83.90;;;;;;6186378;23;20009;-79
2023/10/23 03:41:25;;;;;;;7.03;2.28;;;17.10;83.90;;;;;;6186059;23;20009;-79
2023/10/23 03:43:51;;;;;;;10.00;2.03;;;17.10;83.90;;;;;;6185909;23;20076;-80
2023/10/23 03:46:17;;;;;;;7.07;2.15;;;17.00;83.90;;;;;;6186166;23;20012;-80
2023/10/23 03:48:43;;;;;;;7.25;2.00;;;17.00;84.00;;;;;;6185846;23;19997;-80
2023/10/23 03:51:08;;;;;;;8.32;1.92;;;17.00;84.10;;;;;;6186073;23;20005;-80
2023/10/23 03:53:34;;;;;;;4.05;1.70;;;16.90;84.10;;;;;;6186773;23;20115;-80
2023/10/23 03:56:00;;;;;;;9.27;2.13;;;17.00;84.30;;;;;;6185779;23;20008;-79
2023/10/23 03:58:26;;;;;;;8.00;2.15;;;17.00;84.20;;;;;;6185996;23;20051;-80
2023/10/23 04:00:52;;;;;;;5.65;2.13;;;17.00;84.10;;;;;;6159630;23;20020;-79
2023/10/23 04:03:18;;;;;;;9.05;1.83;;;17.00;84.40;;;;;;6186009;23;20037;-80
2023/10/23 04:05:44;;;;;;;10.93;2.25;;;17.00;84.30;;;;;;6186283;23;20334;-80
2023/10/23 04:08:09;;;;;;;7.30;1.70;;;17.00;84.30;;;;;;6185872;23;20001;-80
2023/10/23 04:10:35;;;;;;;6.65;2.13;;;17.00;84.30;;;;;;6186000;23;20065;-80
2023/10/23 04:13:01;;;;;;;10.07;2.25;;;17.00;84.30;;;;;;6185454;23;20008;-80
2023/10/23 04:15:27;;;;;;;4.55;1.73;;;17.00;84.30;;;;;;6185603;23;20008;-81
2023/10/23 04:17:53;;;;;;;6.40;2.03;;;17.00;84.30;;;;;;6186982;23;20001;-81
2023/10/23 04:20:19;;;;;;;5.43;1.75;;;17.00;84.30;;;;;;6186385;23;20078;-79
2023/10/23 04:22:45;;;;;;;8.07;1.88;;;17.00;84.30;;;;;;6187343;23;20120;-79
2023/10/23 04:25:10;;;;;;;9.40;2.58;;;17.00;84.40;;;;;;6186990;23;20001;-80
2023/10/23 04:27:36;;;;;;;10.95;2.00;;;17.00;84.40;;;;;;6186456;23;20431;-80
2023/10/23 04:30:06;;;;;;;9.63;1.60;;;17.00;84.40;;;;;;6186411;23;20051;-80
2023/10/23 04:32:31;;;;;;;9.80;2.28;;;17.00;84.50;;;;;;6186673;23;20408;-80
2023/10/23 04:34:57;;;;;;;7.75;2.25;;;17.00;84.30;;;;;;6187118;23;20088;-80
2023/10/23 04:37:23;;;;;;;6.57;2.40;;;16.90;84.40;;;;;;6186205;23;20097;-80
2023/10/23 04:39:48;;;;;;;7.72;1.95;;;16.90;84.50;;;;;;6186170;23;20421;-80
2023/10/23 04:42:14;;;;;;;9.85;1.80;;;16.90;84.50;;;;;;6186271;23;20331;-79
2023/10/23 04:44:40;;;;;;;6.63;1.80;;;16.90;84.70;;;;;;6185804;23;20006;-80
2023/10/23 04:47:05;;;;;;;5.75;2.00;;;16.90;84.70;;;;;;6185602;23;20052;-80
2023/10/23 04:49:31;;;;;;;7.88;1.80;;;16.90;84.80;;;;;;6186715;23;20008;-80
2023/10/23 04:51:57;;;;;;;8.73;2.58;;;16.90;84.70;;;;;;6187409;23;20009;-79
2023/10/23 04:54:23;;;;;;;11.65;1.88;;;16.90;84.70;;;;;;6185737;23;20327;-80
2023/10/23 04:56:48;;;;;;;7.68;1.92;;;16.90;84.80;;;;;;6186038;23;20009;-80
2023/10/23 04:59:14;;;;;;;9.38;2.10;;;16.90;84.90;;;;;;6185461;23;20489;-80
2023/10/23 05:01:39;;;;;;;5.93;1.90;;;16.90;84.80;;;;;;6185660;23;20358;-79
2023/10/23 05:04:05;;;;;;;5.03;1.67;;;16.80;84.60;;;;;;6185776;23;20056;-79
2023/10/23 05:06:31;;;;;;;6.25;2.40;;;16.80;84.80;;;;;;6186152;23;20001;-82
2023/10/23 05:08:57;;;;;;;8.70;2.63;;;16.90;84.90;;;;;;6186212;23;20071;-79
2023/10/23 05:11:22;;;;;;;9.20;2.15;;;16.80;84.80;;;;;;6185221;23;20040;-80
2023/10/23 05:13:49;;;;;;;6.40;2.30;;;16.80;84.90;;;;;;6185215;23;20001;-81
2023/10/23 05:16:16;;;;;;;6.28;1.90;;;16.90;84.90;;;;;;6184821;23;20009;-80
2023/10/23 05:18:42;;;;;;;8.80;2.30;;;16.90;85.00;;;;;;6185169;23;20006;-79
2023/10/23 05:21:12;;;;;;;8.95;2.40;;;16.90;84.90;;;;;;6185836;23;20009;-81
2023/10/23 05:23:39;;;;;;;7.78;2.72;;;16.90;84.90;;;;;;6186090;23;20386;-82
2023/10/23 05:26:04;;;;;;;7.28;2.20;;;16.90;85.40;;;;;;6185906;23;20020;-80
2023/10/23 05:28:31;;;;;;;10.55;2.40;;;16.90;85.00;;;;;;6184909;23;20001;-80
2023/10/23 05:30:57;;;;;;;9.13;2.70;;;16.90;84.90;;;;;;6185051;23;20012;-80
2023/10/23 05:33:23;;;;;;;8.82;2.53;;;16.90;85.00;;;;;;6158733;23;20430;-84
2023/10/23 05:35:49;;;;;;;10.45;2.65;;;17.00;85.10;;;;;;6185267;23;20009;-79
2023/10/23 05:38:15;;;;;;;8.27;2.58;;;16.90;85.00;;;;;;6184840;23;20053;-83
2023/10/23 05:40:41;;;;;;;10.23;2.55;;;17.00;85.20;;;;;;6185654;23;20064;-80
2023/10/23 05:43:06;;;;;;;13.70;3.47;;;17.00;85.00;;;;;;6185626;23;19997;-82
2023/10/23 05:45:35;;;;;;;5.60;2.13;;;17.00;85.50;;;;;;6185404;23;20446;-79
2023/10/23 05:48:02;;;;;;;8.85;2.50;;;17.10;85.00;;;;;;6189509;23;20008;-83
2023/10/23 05:50:28;;;;;;;9.27;2.70;;;17.10;85.10;;;;;;6201251;23;20027;-84
2023/10/23 05:52:54;;;;;;;10.57;2.95;;;17.10;84.90;;;;;;6204773;23;19997;-86
2023/10/23 05:55:20;;;;;;;7.97;2.70;;;17.10;85.40;;;;;;6195488;23;20001;-85
2023/10/23 05:57:46;;;;;;;9.32;2.58;;;17.10;84.80;;;;;;6186612;23;20001;-85
2023/10/23 06:00:12;;;;;;;11.15;2.75;;;17.10;84.70;;;;;;6185224;23;20093;-82
2023/10/23 06:02:38;;;;;;;12.02;2.70;;;17.10;84.90;;;;;;6185027;23;20055;-82
2023/10/23 06:05:04;;;;;;;13.73;2.65;;;17.20;84.80;;;;;;6185566;23;20085;-83
2023/10/23 06:07:30;;;;;;;9.30;2.60;;;17.10;84.90;;;;;;6184751;23;20071;-83
2023/10/23 07:22:20;;;;;;;10.82;2.97;;;18.90;81.00;;;;;;6168509;23;20443;-75
2023/10/23 07:24:45;;;;;;;15.52;3.67;;;19.10;80.70;;;;;;6151938;23;20053;-78
2023/10/23 07:27:14;;;;;;;13.50;3.28;;;19.10;80.50;;;;;;6152714;23;20009;-77
2023/10/23 07:29:43;;;;;;;8.90;3.03;;;19.10;80.30;;;;;;6150823;23;20081;-76
2023/10/23 07:32:09;;;;;;;8.43;3.00;;;19.10;80.40;;;;;;6153278;23;20041;-77
2023/10/23 07:34:35;;;;;;;13.55;3.53;;;19.10;80.20;;;;;;6153266;23;19997;-76
2023/10/23 07:37:01;;;;;;;16.15;3.88;;;19.20;80.30;;;;;;6152809;23;20006;-76
2023/10/23 07:39:26;;;;;;;12.80;3.42;;;19.30;80.00;;;;;;6152278;23;20016;-77
2023/10/23 07:41:52;;;;;;;10.55;3.47;;;19.30;80.00;;;;;;6152429;23;20081;-76
2023/10/23 07:44:20;;;;;;;14.48;3.75;;;19.30;79.80;;;;;;6153473;23;20008;-75
2023/10/23 07:46:46;;;;;;;9.35;3.53;;;19.40;79.90;;;;;;6152965;23;20043;-76
2023/10/23 07:49:12;;;;;;;11.32;3.80;;;19.40;79.90;;;;;;6153273;23;20002;-75
2023/10/23 07:51:38;;;;;;;14.85;3.28;;;19.50;79.90;;;;;;6153117;23;20455;-76
2023/10/23 07:54:05;;;;;;;12.45;3.22;;;19.50;80.00;;;;;;6153235;23;20377;-75
2023/10/23 07:56:31;;;;;;;10.02;3.20;;;19.50;80.20;;;;;;6150737;23;20037;-76
2023/10/23 07:58:58;;;;;;;13.32;3.95;;;19.60;80.00;;;;;;6153227;23;20001;-76
2023/10/23 08:01:24;;;;;;;14.52;3.70;;;19.70;79.90;;;;;;6153220;23;20130;-75
2023/10/23 08:03:49;;;;;;;14.13;3.50;;;19.70;79.90;;;;;;6153373;23;20335;-77
2023/10/23 08:06:15;;;;;;;11.32;3.72;;;19.70;79.90;;;;;;6153429;23;20064;-76
2023/10/23 08:08:43;;;;;;;10.45;3.63;;;19.80;79.90;;;;;;6152273;23;20076;-76
2023/10/23 08:11:10;;;;;;;13.15;3.67;;;19.90;79.80;;;;;;6127661;23;20016;-76
2023/10/23 08:13:37;;;;;;;15.73;4.30;;;19.90;79.80;;;;;;6153792;23;20009;-76
2023/10/23 08:16:06;;;;;;;13.93;3.47;;;19.90;79.70;;;;;;6153551;23;20077;-76
2023/10/23 08:18:34;;;;;;;16.20;3.60;;;20.00;79.70;;;;;;6155407;23;20073;-77
2023/10/23 08:21:00;;;;;;;9.80;3.25;;;20.10;79.80;;;;;;6155197;23;20024;-75
2023/10/23 08:23:25;;;;;;;10.10;3.45;;;20.10;79.70;;;;;;6168341;23;20017;-76
2023/10/23 08:25:51;;;;;;;10.75;3.25;;;20.20;79.70;;;;;;6185302;23;20068;-76
2023/10/23 08:28:17;;;;;;;12.38;3.70;;;20.30;79.70;;;;;;6183914;23;20033;-79
2023/10/23 08:30:42;;;;;;;12.65;3.38;;;20.40;79.60;;;;;;6185735;23;20054;-81
2023/10/23 08:33:09;;;;;;;8.75;2.92;;;20.40;79.40;;;;;;6185630;23;20013;-79
2023/10/23 08:35:35;;;;;;;13.90;4.30;;;20.50;79.20;;;;;;6185960;23;20012;-86
2023/10/23 08:38:00;;;;;;;13.68;2.88;;;20.60;79.20;;;;;;6185772;23;20071;-82
2023/10/23 08:40:26;;;;;;;13.52;3.40;;;20.60;78.90;;;;;;6186313;23;20078;-82
2023/10/23 08:42:52;;;;;;;11.65;2.92;;;20.70;78.90;;;;;;6186445;23;20036;-83
2023/10/23 08:45:18;;;;;;;9.15;2.60;;;20.80;78.70;;;;;;6187832;23;20339;-86
2023/10/23 08:47:44;;;;;;;11.05;2.97;;;20.90;78.50;;;;;;6187882;23;20001;-80
2023/10/23 08:50:12;;;;;;;10.32;2.75;;;21.00;78.10;;;;;;6185222;23;20321;-80
2023/10/23 08:52:49;;;;;;;11.88;3.05;;;21.10;78.20;;;;;;6185432;23;20012;-80
2023/10/23 08:55:15;;;;;;;18.42;3.22;;;21.10;77.90;;;;;;6184854;23;20340;-78
2023/10/23 08:57:50;;;;;;;10.20;2.60;;;21.20;77.80;;;;;;6184972;23;20004;-78
2023/10/23 09:00:16;;;;;;;6.85;2.20;;;21.30;77.50;;;;;;6184134;23;20017;-78
2023/10/23 09:02:42;;;;;;;10.05;3.00;;;21.30;76.90;;;;;;6153792;23;20099;-79
2023/10/23 09:05:08;;;;;;;11.65;2.53;;;21.40;76.80;;;;;;6185328;23;20001;-79
2023/10/23 09:07:33;;;;;;;10.38;2.70;;;21.50;76.60;;;;;;6185229;23;20087;-80
2023/10/23 09:10:03;;;;;;;10.95;2.45;;;21.60;76.50;;;;;;6184461;23;20308;-79
2023/10/23 09:12:34;;;;;;;9.13;2.63;;;21.70;75.90;;;;;;6184883;23;19997;-79
2023/10/23 09:15:16;;;;;;;11.82;2.22;;;21.80;75.30;;;;;;6185236;23;20039;-80
2023/10/23 09:17:42;;;;;;;8.98;2.70;;;21.80;75.30;;;;;;6184875;23;20005;-79
2023/10/23 09:20:18;;;;;;;9.40;2.13;;;21.90;74.50;;;;;;6183915;23;20009;-79
2023/10/23 09:22:47;;;;;;;9.07;2.47;;;22.00;73.90;;;;;;6184492;23;20021;-80
2023/10/23 09:25:14;;;;;;;12.85;2.75;;;22.20;73.60;;;;;;6184305;23;20439;-80
2023/10/23 09:27:40;;;;;;;10.20;2.08;;;22.30;73.20;;;;;;6185340;23;20434;-82
2023/10/23 09:30:08;;;;;;;7.40;2.20;;;22.50;72.70;;;;;;6184954;23;20032;-78
2023/10/23 09:32:35;;;;;;;11.52;2.42;;;22.60;71.90;;;;;;6184594;23;20005;-80
2023/10/23 09:35:02;;;;;;;7.88;2.00;;;22.80;71.40;;;;;;6183294;23;20431;-79
2023/10/23 09:37:29;;;;;;;5.75;1.75;;;22.90;70.70;;;;;;6183449;23;20011;-80
2023/10/23 09:40:29;;;;;;;10.93;2.35;;;23.00;70.20;;;;;;6184301;23;20017;-79
2023/10/23 09:42:58;;;;;;;8.65;2.08;;;23.10;70.10;;;;;;6184565;23;20005;-80
2023/10/23 09:45:24;;;;;;;7.18;2.03;;;23.10;69.70;;;;;;6184750;23;20001;-81
2023/10/23 09:47:54;;;;;;;11.00;2.35;;;23.30;69.30;;;;;;6184196;23;20004;-79
2023/10/23 09:50:20;;;;;;;7.78;1.90;;;23.30;68.50;;;;;;6184974;23;20012;-80
2023/10/23 09:52:47;;;;;;;6.18;1.52;;;23.40;68.00;;;;;;6184838;23;20072;-80
2023/10/23 09:55:17;;;;;;;10.52;1.73;;;23.40;67.70;;;;;;6184770;23;20012;-80
2023/10/23 09:57:45;;;;;;;5.65;1.95;;;23.50;67.20;;;;;;6184968;23;20005;-81
2023/10/23 10:00:15;;;;;;;10.27;2.30;;;23.50;67.20;;;;;;6184802;23;20035;-80
2023/10/23 10:03:06;;;;;;;6.00;1.95;;;23.50;67.10;;;;;;6184789;23;20076;-79
2023/10/23 10:05:42;;;;;;;8.32;1.88;;;23.60;66.70;;;;;;6184908;23;20059;-80
2023/10/23 10:08:13;;;;;;;6.20;2.08;;;23.60;66.40;;;;;;6184960;23;20001;-79
2023/10/23 10:10:40;;;;;;;8.98;2.03;;;23.70;65.90;;;;;;6158380;23;20017;-80
2023/10/23 10:13:06;;;;;;;6.28;2.28;;;23.80;66.10;;;;;;6185636;23;20001;-79
2023/10/23 10:15:32;;;;;;;5.57;1.77;;;23.80;65.60;;;;;;6184986;23;20691;-80
2023/10/23 10:17:58;;;;;;;7.78;2.15;;;23.90;65.60;;;;;;6184381;23;20072;-81
2023/10/23 10:20:25;;;;;;;6.68;2.20;;;24.00;65.10;;;;;;6184415;23;20051;-80
2023/10/23 10:23:12;;;;;;;6.18;2.20;;;24.10;65.00;;;;;;6183823;23;20013;-80
2023/10/23 10:25:39;;;;;;;5.78;2.00;;;24.20;64.60;;;;;;6183819;23;20005;-80
2023/10/23 10:28:08;;;;;;;6.53;2.35;;;24.10;64.50;;;;;;6185434;23;20004;-80
2023/10/23 10:30:50;;;;;;;10.57;2.50;;;24.20;64.80;;;;;;6160811;23;20005;-79
2023/10/23 10:33:25;;;;;;;9.70;2.78;;;24.30;65.10;;;;;;6185037;23;20420;-80
2023/10/23 10:36:01;;;;;;;7.88;2.50;;;24.20;64.40;;;;;;6183991;23;20005;-79
2023/10/23 10:38:32;;;;;;;7.53;2.40;;;24.30;64.70;;;;;;6183691;23;20474;-82
2023/10/23 10:41:00;;;;;;;8.48;2.45;;;24.40;64.50;;;;;;6183683;23;20048;-82
2023/10/23 10:43:34;;;;;;;7.90;2.30;;;24.40;64.40;;;;;;6157831;23;20054;-80
2023/10/23 10:46:04;;;;;;;7.00;2.50;;;24.50;64.50;;;;;;6184392;23;20044;-79
2023/10/23 10:48:43;;;;;;;7.93;2.75;;;24.60;64.30;;;;;;6184310;23;20016;-80
2023/10/23 10:51:09;;;;;;;13.45;3.60;;;24.70;63.90;;;;;;6184156;23;20411;-81
2023/10/23 10:53:40;;;;;;;10.25;3.03;;;24.80;64.00;;;;;;6183990;23;19998;-79
2023/10/23 10:56:08;;;;;;;10.50;3.50;;;24.80;64.10;;;;;;6157698;23;20400;-80
2023/10/23 10:58:36;;;;;;;8.80;2.70;;;24.90;63.70;;;;;;6184553;23;20013;-81
2023/10/23 11:01:03;;;;;;;9.15;2.70;;;24.90;63.40;;;;;;6184088;23;20013;-81
2023/10/23 11:03:32;;;;;;;11.43;2.55;;;25.00;63.50;;;;;;6157163;23;20005;-81
2023/10/23 11:05:58;;;;;;;11.95;2.53;;;25.00;63.60;;;;;;6184546;23;20008;-81
2023/10/23 11:08:26;;;;;;;11.05;2.65;;;25.10;63.50;;;;;;6183428;23;20001;-79
2023/10/23 11:10:51;;;;;;;11.32;2.47;;;25.10;64.00;;;;;;6183867;23;20075;-81
2023/10/23 11:13:17;;;;;;;15.38;2.60;;;25.10;63.30;;;;;;6184067;23;20415;-79
2023/10/23 11:15:43;;;;;;;13.55;2.90;;;25.20;63.50;;;;;;6183976;23;20320;-82
2023/10/23 11:18:09;;;;;;;11.65;2.65;;;25.20;63.40;;;;;;6184631;23;20004;-81
2023/10/23 11:20:38;;;;;;;12.18;3.00;;;25.30;63.20;;;;;;6158302;23;20017;-81
2023/10/23 11:23:04;;;;;;;11.90;2.38;;;25.30;63.30;;;;;;6183942;23;20076;-81
2023/10/23 11:25:30;;;;;;;12.38;2.28;;;25.40;62.90;;;;;;6184136;23;20029;-81
2023/10/23 11:27:55;;;;;;;10.60;2.63;;;25.50;63.00;;;;;;6184138;23;20425;-80
2023/10/23 11:30:26;;;;;;;13.63;2.38;;;25.50;62.80;;;;;;6183921;23;20356;-81
2023/10/23 11:32:53;;;;;;;11.65;2.88;;;25.60;63.10;;;;;;6184219;23;20001;-82
2023/10/23 11:35:19;;;;;;;17.00;2.67;;;25.70;62.80;;;;;;6184480;23;20016;-82
2023/10/23 11:37:45;;;;;;;8.45;2.33;;;25.70;63.00;;;;;;6158452;23;20009;-82
2023/10/23 11:40:11;;;;;;;20.30;2.78;;;25.80;63.10;;;;;;6184863;23;20017;-82
2023/10/23 11:42:46;;;;;;;15.23;2.65;;;25.80;63.10;;;;;;6184208;23;20060;-81
2023/10/23 11:45:12;;;;;;;14.82;3.45;;;25.90;62.90;;;;;;6184427;23;20001;-83
2023/10/23 11:47:38;;;;;;;13.40;2.90;;;25.90;62.90;;;;;;6184426;23;20002;-80
2023/10/23 11:50:10;;;;;;;12.70;2.42;;;25.90;62.70;;;;;;6184571;23;20001;-79
2023/10/23 11:52:41;;;;;;;10.35;2.50;;;25.80;62.80;;;;;;6186389;23;20009;-82
2023/10/23 11:55:16;;;;;;;15.63;2.80;;;25.70;62.80;;;;;;6160415;23;20047;-82
2023/10/23 11:57:45;;;;;;;8.98;2.63;;;25.70;62.90;;;;;;6187378;23;20037;-82
2023/10/23 12:00:14;;;;;;;12.48;3.40;;;25.70;63.10;;;;;;6189998;23;20068;-81
2023/10/23 12:02:41;;;;;;;13.80;3.25;;;25.80;63.30;;;;;;6187204;23;19997;-80
2023/10/23 12:05:12;;;;;;;16.38;2.70;;;25.90;63.40;;;;;;6187577;23;20024;-81
2023/10/23 12:07:43;;;;;;;15.27;3.35;;;25.90;63.40;;;;;;6160837;23;20005;-80
2023/10/23 12:10:10;;;;;;;25.20;3.63;;;26.00;63.50;;;;;;6186034;23;20001;-80
2023/10/23 12:12:40;;;;;;;19.88;3.45;;;26.00;62.90;;;;;;6186190;23;20025;-79
2023/10/23 12:15:08;;;;;;;14.13;2.95;;;26.10;63.10;;;;;;6185266;23;20072;-82
2023/10/23 12:17:34;;;;;;;17.95;3.35;;;26.10;63.00;;;;;;6185666;23;20001;-80
2023/10/23 12:20:00;;;;;;;18.13;3.35;;;26.10;62.90;;;;;;6185464;23;20013;-82
2023/10/23 12:22:26;;;;;;;11.93;2.95;;;26.10;62.90;;;;;;6187021;23;20323;-81
2023/10/23 12:24:51;;;;;;;16.63;3.20;;;26.10;62.80;;;;;;6185743;23;20001;-81
2023/10/23 12:27:17;;;;;;;22.27;3.25;;;26.20;62.90;;;;;;6185788;23;20010;-81
2023/10/23 12:29:43;;;;;;;11.27;2.80;;;26.20;62.90;;;;;;6159277;23;20020;-82
2023/10/23 12:32:11;;;;;;;10.48;2.65;;;26.20;62.70;;;;;;6185945;23;20449;-82
2023/10/23 12:34:36;;;;;;;13.95;3.15;;;26.20;62.60;;;;;;6186416;23;20005;-83
2023/10/23 12:37:02;;;;;;;15.48;3.17;;;26.20;62.60;;;;;;6186443;23;20095;-82
2023/10/23 12:39:28;;;;;;;13.70;2.53;;;26.20;62.40;;;;;;6186187;23;20009;-79
2023/10/23 12:41:54;;;;;;;12.52;2.97;;;26.10;62.40;;;;;;6185920;23;20005;-81
2023/10/23 12:44:20;;;;;;;15.50;3.55;;;26.10;62.40;;;;;;6160168;23;20047;-82
2023/10/23 12:46:46;;;;;;;10.30;2.67;;;26.10;62.50;;;;;;6186175;23;20085;-81
2023/10/23 12:49:11;;;;;;;14.85;3.08;;;26.10;62.60;;;;;;6185811;23;19997;-81
2023/10/23 12:51:37;;;;;;;18.60;3.65;;;26.20;62.50;;;;;;6159112;23;20009;-80
2023/10/23 12:54:03;;;;;;;21.58;3.72;;;26.10;62.30;;;;;;6185838;23;20032;-81
2023/10/23 12:56:29;;;;;;;19.02;3.35;;;26.20;62.40;;;;;;6186082;23;20008;-80
2023/10/23 12:58:54;;;;;;;21.20;3.03;;;26.20;62.50;;;;;;6185684;23;20008;-80
2023/10/23 13:01:20;;;;;;;16.25;3.40;;;26.30;62.30;;;;;;6159163;23;20021;-80
2023/10/23 13:03:46;;;;;;;16.85;2.67;;;26.30;62.50;;;;;;6185356;23;20336;-81
2023/10/23 13:06:11;;;;;;;20.40;3.53;;;26.40;62.40;;;;;;6185545;23;20022;-80
2023/10/23 13:08:37;;;;;;;18.77;3.53;;;26.40;62.60;;;;;;6185563;23;20400;-82
2023/10/23 13:11:03;;;;;;;12.45;2.83;;;26.30;62.40;;;;;;6185762;23;20005;-79
2023/10/23 13:13:28;;;;;;;20.25;3.17;;;26.30;62.70;;;;;;6185462;23;20009;-80
2023/10/23 13:15:54;;;;;;;14.20;3.15;;;26.30;62.60;;;;;;6185348;23;20188;-84
2023/10/23 13:18:20;;;;;;;16.92;3.25;;;26.30;62.30;;;;;;6186038;23;20067;-80
2023/10/23 13:20:45;;;;;;;15.30;2.67;;;26.20;62.30;;;;;;6185207;23;20017;-80
2023/10/23 16:58:44;;;;;;;18.98;4.97;;;23.00;73.90;;;;;;6244318;23;20409;-78
2023/10/23 17:01:10;;;;;;;16.25;4.07;;;22.90;73.80;;;;;;6247063;23;20016;-88
2023/10/23 17:03:39;;;;;;;15.32;4.32;;;22.90;73.90;;;;;;6247268;23;20426;-78
2023/10/23 17:06:09;;;;;;;13.05;4.13;;;22.80;74.50;;;;;;6246160;23;20023;-80
2023/10/23 17:08:35;;;;;;;17.92;4.38;;;22.80;74.20;;;;;;6245940;23;20084;-78
2023/10/23 17:11:09;;;;;;;17.33;4.72;;;22.80;74.40;;;;;;6219244;23;20016;-79
2023/10/23 17:13:34;;;;;;;;;;;22.80;75.50;;;;;;6246704;23;20000;-77
2023/10/23 17:16:03;;;;;;;23.23;5.43;;;22.70;75.20;;;;;;6220268;23;19938;-75
2023/10/23 17:18:29;;;;;;;18.40;4.78;;;22.70;75.40;;;;;;6245619;23;20004;-75
2023/10/23 17:20:55;;;;;;;15.40;4.38;;;22.60;75.00;;;;;;6244648;23;20008;-76
2023/10/23 17:23:21;;;;;;;15.68;4.35;;;22.60;75.90;;;;;;6244831;23;20038;-75
2023/10/23 17:25:47;;;;;;;18.17;4.30;;;22.60;75.60;;;;;;6245655;23;20000;-87
2023/10/23 17:28:13;;;;;;;16.35;4.10;;;22.60;75.60;;;;;;6245817;23;20055;-83
2023/10/23 17:30:39;;;;;;;12.30;3.47;;;22.50;75.90;;;;;;6245665;23;20094;-78
2023/10/23 17:33:08;;;;;;;16.58;4.38;;;22.50;76.30;;;;;;6245098;23;20058;-76
2023/10/23 17:35:35;;;;;;;15.27;5.40;;;22.40;76.90;;;;;;6245652;23;20004;-74
2023/10/23 17:38:02;;;;;;;14.52;6.03;;;22.40;76.70;;;;;;6245218;23;20039;-74